METAR Data
IDs: Format: Raw Decoded Include TAF

Data at: 2349 UTC 24 Apr 2019

METAR for:KIFA (Iowa Falls Muni, IA, US)
Text:KIFA 242335Z AUTO 17009KT 10SM CLR 20/09 A2980 RMK AO2 T02020088
Temperature: 20.2°C ( 68°F)
Dewpoint: 8.8°C ( 48°F) [RH = 48%]
Pressure (altimeter):29.80 inches Hg (1009.2 mb)
Winds:from the S (170 degrees) at 10 MPH (9 knots; 4.6 m/s)
Visibility:10 or more sm (16+ km)
Ceiling:at least 12,000 feet AGL
Clouds:sky clear below 12,000 feet AGL
QC Flag:automated observation with no human augmentation